sensor_id;sensor_type;location;lat;lon;timestamp;P1;durP1;ratioP1;P2;durP2;ratioP2
6282;SDS011;3174;53.486;9.568;2023-04-01T00:00:33;5.57;;;2.17;;
6282;SDS011;3174;53.486;9.568;2023-04-01T00:03:02;3.60;;;2.10;;
6282;SDS011;3174;53.486;9.568;2023-04-01T00:05:31;5.97;;;3.00;;
6282;SDS011;3174;53.486;9.568;2023-04-01T00:07:59;4.30;;;2.10;;
6282;SDS011;3174;53.486;9.568;2023-04-01T00:10:27;5.97;;;2.80;;
6282;SDS011;3174;53.486;9.568;2023-04-01T00:12:55;4.07;;;2.30;;
6282;SDS011;3174;53.486;9.568;2023-04-01T00:15:23;5.77;;;2.90;;
6282;SDS011;3174;53.486;9.568;2023-04-01T00:17:51;3.30;;;1.90;;
6282;SDS011;3174;53.486;9.568;2023-04-01T00:20:22;6.70;;;2.83;;
6282;SDS011;3174;53.486;9.568;2023-04-01T00:22:50;4.07;;;2.57;;
6282;SDS011;3174;53.486;9.568;2023-04-01T00:25:18;5.93;;;2.40;;
6282;SDS011;3174;53.486;9.568;2023-04-01T00:27:46;2.57;;;1.70;;
6282;SDS011;3174;53.486;9.568;2023-04-01T00:30:14;3.53;;;2.00;;
6282;SDS011;3174;53.486;9.568;2023-04-01T00:32:42;4.40;;;2.63;;
6282;SDS011;3174;53.486;9.568;2023-04-01T00:35:10;4.90;;;2.17;;
6282;SDS011;3174;53.486;9.568;2023-04-01T00:37:40;5.20;;;2.00;;
6282;SDS011;3174;53.486;9.568;2023-04-01T00:40:11;6.07;;;2.27;;
6282;SDS011;3174;53.486;9.568;2023-04-01T00:42:50;4.03;;;2.10;;
6282;SDS011;3174;53.486;9.568;2023-04-01T00:45:26;3.53;;;2.00;;
6282;SDS011;3174;53.486;9.568;2023-04-01T00:47:58;3.70;;;1.90;;
6282;SDS011;3174;53.486;9.568;2023-04-01T00:50:28;2.57;;;2.10;;
6282;SDS011;3174;53.486;9.568;2023-04-01T00:52:58;4.73;;;2.30;;
6282;SDS011;3174;53.486;9.568;2023-04-01T00:55:28;5.20;;;2.50;;
6282;SDS011;3174;53.486;9.568;2023-04-01T00:57:57;3.47;;;2.10;;
6282;SDS011;3174;53.486;9.568;2023-04-01T01:00:26;4.23;;;2.20;;
6282;SDS011;3174;53.486;9.568;2023-04-01T01:02:54;3.77;;;2.30;;
6282;SDS011;3174;53.486;9.568;2023-04-01T01:05:25;5.97;;;2.03;;
6282;SDS011;3174;53.486;9.568;2023-04-01T01:08:17;2.37;;;1.80;;
6282;SDS011;3174;53.486;9.568;2023-04-01T01:10:52;3.70;;;2.00;;
6282;SDS011;3174;53.486;9.568;2023-04-01T01:13:22;3.97;;;2.13;;
6282;SDS011;3174;53.486;9.568;2023-04-01T01:15:53;3.77;;;2.07;;
6282;SDS011;3174;53.486;9.568;2023-04-01T01:18:26;4.10;;;2.10;;
6282;SDS011;3174;53.486;9.568;2023-04-01T01:21:07;2.77;;;1.77;;
6282;SDS011;3174;53.486;9.568;2023-04-01T01:23:57;3.20;;;1.97;;
6282;SDS011;3174;53.486;9.568;2023-04-01T01:26:38;3.90;;;2.10;;
6282;SDS011;3174;53.486;9.568;2023-04-01T01:29:41;5.13;;;2.20;;
6282;SDS011;3174;53.486;9.568;2023-04-01T01:32:36;5.27;;;2.17;;
6282;SDS011;3174;53.486;9.568;2023-04-01T01:35:23;4.30;;;1.93;;
6282;SDS011;3174;53.486;9.568;2023-04-01T01:37:55;4.70;;;2.13;;
6282;SDS011;3174;53.486;9.568;2023-04-01T01:40:26;6.43;;;2.13;;
6282;SDS011;3174;53.486;9.568;2023-04-01T01:42:59;4.33;;;2.00;;
6282;SDS011;3174;53.486;9.568;2023-04-01T01:45:30;4.80;;;2.20;;
6282;SDS011;3174;53.486;9.568;2023-04-01T01:48:00;4.80;;;2.40;;
6282;SDS011;3174;53.486;9.568;2023-04-01T01:50:31;5.00;;;2.40;;
6282;SDS011;3174;53.486;9.568;2023-04-01T01:53:00;3.47;;;2.27;;
6282;SDS011;3174;53.486;9.568;2023-04-01T01:55:32;3.47;;;2.33;;
6282;SDS011;3174;53.486;9.568;2023-04-01T01:58:03;3.73;;;2.13;;
6282;SDS011;3174;53.486;9.568;2023-04-01T02:00:34;3.20;;;2.20;;
6282;SDS011;3174;53.486;9.568;2023-04-01T02:03:03;6.83;;;2.47;;
6282;SDS011;3174;53.486;9.568;2023-04-01T02:05:33;3.23;;;2.10;;
6282;SDS011;3174;53.486;9.568;2023-04-01T02:08:02;3.67;;;2.40;;
6282;SDS011;3174;53.486;9.568;2023-04-01T02:10:34;3.30;;;2.10;;
6282;SDS011;3174;53.486;9.568;2023-04-01T02:13:06;2.80;;;1.73;;
6282;SDS011;3174;53.486;9.568;2023-04-01T02:15:37;5.03;;;2.20;;
6282;SDS011;3174;53.486;9.568;2023-04-01T02:18:09;4.57;;;2.60;;
6282;SDS011;3174;53.486;9.568;2023-04-01T02:20:39;5.17;;;2.53;;
6282;SDS011;3174;53.486;9.568;2023-04-01T02:23:08;3.20;;;1.93;;
6282;SDS011;3174;53.486;9.568;2023-04-01T02:25:38;4.87;;;2.40;;
6282;SDS011;3174;53.486;9.568;2023-04-01T02:28:07;2.87;;;2.23;;
6282;SDS011;3174;53.486;9.568;2023-04-01T02:30:36;2.70;;;2.17;;
6282;SDS011;3174;53.486;9.568;2023-04-01T02:33:06;3.23;;;1.87;;
6282;SDS011;3174;53.486;9.568;2023-04-01T02:35:35;3.40;;;2.23;;
6282;SDS011;3174;53.486;9.568;2023-04-01T02:38:05;3.67;;;2.17;;
6282;SDS011;3174;53.486;9.568;2023-04-01T02:40:43;4.03;;;2.00;;
6282;SDS011;3174;53.486;9.568;2023-04-01T02:43:12;3.27;;;2.20;;
6282;SDS011;3174;53.486;9.568;2023-04-01T02:45:40;4.27;;;2.13;;
6282;SDS011;3174;53.486;9.568;2023-04-01T02:48:08;3.13;;;2.20;;
6282;SDS011;3174;53.486;9.568;2023-04-01T02:50:36;2.73;;;1.87;;
6282;SDS011;3174;53.486;9.568;2023-04-01T02:53:05;3.40;;;2.07;;
6282;SDS011;3174;53.486;9.568;2023-04-01T02:55:33;3.60;;;2.00;;
6282;SDS011;3174;53.486;9.568;2023-04-01T02:58:01;4.07;;;2.20;;
6282;SDS011;3174;53.486;9.568;2023-04-01T03:00:29;3.03;;;1.93;;
6282;SDS011;3174;53.486;9.568;2023-04-01T03:02:58;4.63;;;1.97;;
6282;SDS011;3174;53.486;9.568;2023-04-01T03:05:26;3.50;;;1.97;;
6282;SDS011;3174;53.486;9.568;2023-04-01T03:07:54;3.17;;;2.20;;
6282;SDS011;3174;53.486;9.568;2023-04-01T03:10:23;2.87;;;2.30;;
6282;SDS011;3174;53.486;9.568;2023-04-01T03:12:51;3.80;;;2.17;;
6282;SDS011;3174;53.486;9.568;2023-04-01T03:15:19;3.77;;;2.00;;
6282;SDS011;3174;53.486;9.568;2023-04-01T03:17:47;3.47;;;1.97;;
6282;SDS011;3174;53.486;9.568;2023-04-01T03:20:15;4.13;;;1.80;;
6282;SDS011;3174;53.486;9.568;2023-04-01T03:22:43;3.87;;;2.10;;
6282;SDS011;3174;53.486;9.568;2023-04-01T03:25:12;2.77;;;1.90;;
6282;SDS011;3174;53.486;9.568;2023-04-01T03:27:41;2.73;;;1.53;;
6282;SDS011;3174;53.486;9.568;2023-04-01T03:30:09;3.00;;;1.77;;
6282;SDS011;3174;53.486;9.568;2023-04-01T03:32:37;1.97;;;1.80;;
6282;SDS011;3174;53.486;9.568;2023-04-01T03:35:06;3.60;;;2.00;;
6282;SDS011;3174;53.486;9.568;2023-04-01T03:37:35;3.37;;;1.70;;
6282;SDS011;3174;53.486;9.568;2023-04-01T03:40:04;2.43;;;1.80;;
6282;SDS011;3174;53.486;9.568;2023-04-01T03:42:33;4.20;;;2.30;;
6282;SDS011;3174;53.486;9.568;2023-04-01T03:45:03;2.37;;;1.80;;
6282;SDS011;3174;53.486;9.568;2023-04-01T03:47:32;2.40;;;1.80;;
6282;SDS011;3174;53.486;9.568;2023-04-01T03:50:00;2.57;;;1.93;;
6282;SDS011;3174;53.486;9.568;2023-04-01T03:52:28;1.60;;;1.43;;
6282;SDS011;3174;53.486;9.568;2023-04-01T03:54:56;3.13;;;1.97;;
6282;SDS011;3174;53.486;9.568;2023-04-01T03:57:24;2.17;;;1.67;;
6282;SDS011;3174;53.486;9.568;2023-04-01T03:59:52;3.93;;;1.53;;
6282;SDS011;3174;53.486;9.568;2023-04-01T04:02:22;2.53;;;1.80;;
6282;SDS011;3174;53.486;9.568;2023-04-01T04:04:50;3.13;;;2.07;;
6282;SDS011;3174;53.486;9.568;2023-04-01T04:07:18;2.43;;;1.93;;
6282;SDS011;3174;53.486;9.568;2023-04-01T04:09:46;3.73;;;1.93;;
6282;SDS011;3174;53.486;9.568;2023-04-01T04:12:14;2.07;;;1.80;;
6282;SDS011;3174;53.486;9.568;2023-04-01T04:14:42;2.97;;;2.03;;
6282;SDS011;3174;53.486;9.568;2023-04-01T04:17:10;3.10;;;1.97;;
6282;SDS011;3174;53.486;9.568;2023-04-01T04:19:43;6.63;;;2.37;;
6282;SDS011;3174;53.486;9.568;2023-04-01T04:22:11;2.73;;;1.97;;
6282;SDS011;3174;53.486;9.568;2023-04-01T04:24:39;2.77;;;2.10;;
6282;SDS011;3174;53.486;9.568;2023-04-01T04:27:07;1.97;;;1.70;;
6282;SDS011;3174;53.486;9.568;2023-04-01T04:29:35;2.33;;;2.00;;
6282;SDS011;3174;53.486;9.568;2023-04-01T04:32:03;2.90;;;2.13;;
6282;SDS011;3174;53.486;9.568;2023-04-01T04:34:31;3.87;;;2.33;;
6282;SDS011;3174;53.486;9.568;2023-04-01T04:37:01;4.20;;;2.10;;
6282;SDS011;3174;53.486;9.568;2023-04-01T04:39:29;4.37;;;2.07;;
6282;SDS011;3174;53.486;9.568;2023-04-01T04:41:57;3.37;;;2.33;;
6282;SDS011;3174;53.486;9.568;2023-04-01T04:44:25;4.03;;;2.20;;
6282;SDS011;3174;53.486;9.568;2023-04-01T04:46:53;2.97;;;1.90;;
6282;SDS011;3174;53.486;9.568;2023-04-01T04:49:23;2.50;;;1.73;;
6282;SDS011;3174;53.486;9.568;2023-04-01T04:51:51;3.53;;;2.33;;
6282;SDS011;3174;53.486;9.568;2023-04-01T04:54:21;3.67;;;2.30;;
6282;SDS011;3174;53.486;9.568;2023-04-01T04:56:50;3.73;;;2.00;;
6282;SDS011;3174;53.486;9.568;2023-04-01T04:59:18;3.60;;;2.20;;
6282;SDS011;3174;53.486;9.568;2023-04-01T05:01:47;3.60;;;2.37;;
6282;SDS011;3174;53.486;9.568;2023-04-01T05:04:15;3.17;;;1.87;;
6282;SDS011;3174;53.486;9.568;2023-04-01T05:06:43;3.70;;;2.10;;
6282;SDS011;3174;53.486;9.568;2023-04-01T05:09:11;4.50;;;1.97;;
6282;SDS011;3174;53.486;9.568;2023-04-01T05:11:40;2.73;;;2.00;;
6282;SDS011;3174;53.486;9.568;2023-04-01T05:14:11;3.37;;;2.17;;
6282;SDS011;3174;53.486;9.568;2023-04-01T05:16:40;3.30;;;2.00;;
6282;SDS011;3174;53.486;9.568;2023-04-01T05:19:08;3.57;;;2.27;;
6282;SDS011;3174;53.486;9.568;2023-04-01T05:21:36;4.77;;;2.17;;
6282;SDS011;3174;53.486;9.568;2023-04-01T05:24:07;4.17;;;2.17;;
6282;SDS011;3174;53.486;9.568;2023-04-01T05:26:35;3.83;;;2.37;;
6282;SDS011;3174;53.486;9.568;2023-04-01T05:29:05;4.03;;;2.30;;
6282;SDS011;3174;53.486;9.568;2023-04-01T05:31:33;3.00;;;2.03;;
6282;SDS011;3174;53.486;9.568;2023-04-01T05:34:01;4.73;;;2.47;;
6282;SDS011;3174;53.486;9.568;2023-04-01T05:36:29;2.97;;;2.30;;
6282;SDS011;3174;53.486;9.568;2023-04-01T05:38:57;6.50;;;2.33;;
6282;SDS011;3174;53.486;9.568;2023-04-01T05:41:25;3.00;;;2.30;;
6282;SDS011;3174;53.486;9.568;2023-04-01T05:43:53;4.07;;;2.90;;
6282;SDS011;3174;53.486;9.568;2023-04-01T05:46:22;2.20;;;2.00;;
6282;SDS011;3174;53.486;9.568;2023-04-01T05:48:51;3.87;;;2.73;;
6282;SDS011;3174;53.486;9.568;2023-04-01T05:51:19;5.77;;;3.03;;
6282;SDS011;3174;53.486;9.568;2023-04-01T05:53:46;5.00;;;2.47;;
6282;SDS011;3174;53.486;9.568;2023-04-01T05:56:14;3.57;;;2.60;;
6282;SDS011;3174;53.486;9.568;2023-04-01T05:58:42;4.40;;;2.63;;
6282;SDS011;3174;53.486;9.568;2023-04-01T06:01:12;5.10;;;2.60;;
6282;SDS011;3174;53.486;9.568;2023-04-01T06:03:43;6.87;;;2.70;;
6282;SDS011;3174;53.486;9.568;2023-04-01T06:06:13;6.00;;;2.60;;
6282;SDS011;3174;53.486;9.568;2023-04-01T06:08:42;2.60;;;2.37;;
6282;SDS011;3174;53.486;9.568;2023-04-01T06:11:14;4.57;;;2.50;;
6282;SDS011;3174;53.486;9.568;2023-04-01T06:14:00;3.73;;;2.73;;
6282;SDS011;3174;53.486;9.568;2023-04-01T06:16:39;7.00;;;2.70;;
6282;SDS011;3174;53.486;9.568;2023-04-01T06:19:19;2.83;;;2.10;;
6282;SDS011;3174;53.486;9.568;2023-04-01T06:22:08;7.17;;;3.70;;
6282;SDS011;3174;53.486;9.568;2023-04-01T06:25:02;2.93;;;2.40;;
6282;SDS011;3174;53.486;9.568;2023-04-01T06:27:46;7.03;;;3.00;;
6282;SDS011;3174;53.486;9.568;2023-04-01T06:30:30;5.73;;;2.97;;
6282;SDS011;3174;53.486;9.568;2023-04-01T06:33:11;4.30;;;2.50;;
6282;SDS011;3174;53.486;9.568;2023-04-01T06:35:52;3.50;;;2.30;;
6282;SDS011;3174;53.486;9.568;2023-04-01T06:38:33;2.73;;;1.60;;
6282;SDS011;3174;53.486;9.568;2023-04-01T06:44:16;2.47;;;1.73;;
6282;SDS011;3174;53.486;9.568;2023-04-01T06:46:47;1.90;;;1.27;;
6282;SDS011;3174;53.486;9.568;2023-04-01T06:49:26;0.87;;;0.87;;
6282;SDS011;3174;53.486;9.568;2023-04-01T06:52:05;1.17;;;0.93;;
6282;SDS011;3174;53.486;9.568;2023-04-01T06:54:40;1.00;;;1.00;;
6282;SDS011;3174;53.486;9.568;2023-04-01T06:57:16;1.50;;;1.17;;
6282;SDS011;3174;53.486;9.568;2023-04-01T06:59:48;1.50;;;1.03;;
6282;SDS011;3174;53.486;9.568;2023-04-01T07:02:19;0.63;;;0.63;;
6282;SDS011;3174;53.486;9.568;2023-04-01T07:04:52;3.33;;;0.83;;
6282;SDS011;3174;53.486;9.568;2023-04-01T07:07:27;0.80;;;0.80;;
6282;SDS011;3174;53.486;9.568;2023-04-01T07:09:58;1.13;;;0.83;;
6282;SDS011;3174;53.486;9.568;2023-04-01T07:12:30;0.70;;;0.70;;
6282;SDS011;3174;53.486;9.568;2023-04-01T07:15:02;0.80;;;0.60;;
6282;SDS011;3174;53.486;9.568;2023-04-01T07:17:33;1.13;;;0.80;;
6282;SDS011;3174;53.486;9.568;2023-04-01T07:20:04;1.83;;;0.73;;
6282;SDS011;3174;53.486;9.568;2023-04-01T07:22:40;0.70;;;0.70;;
6282;SDS011;3174;53.486;9.568;2023-04-01T07:25:11;0.70;;;0.70;;
6282;SDS011;3174;53.486;9.568;2023-04-01T07:27:41;1.13;;;0.70;;
6282;SDS011;3174;53.486;9.568;2023-04-01T07:30:12;0.60;;;0.60;;
6282;SDS011;3174;53.486;9.568;2023-04-01T07:32:42;0.63;;;0.63;;
6282;SDS011;3174;53.486;9.568;2023-04-01T07:35:14;0.73;;;0.40;;
6282;SDS011;3174;53.486;9.568;2023-04-01T07:37:52;0.77;;;0.70;;
6282;SDS011;3174;53.486;9.568;2023-04-01T07:40:31;0.70;;;0.70;;
6282;SDS011;3174;53.486;9.568;2023-04-01T07:43:19;0.63;;;0.50;;
6282;SDS011;3174;53.486;9.568;2023-04-01T07:45:55;1.87;;;0.50;;
6282;SDS011;3174;53.486;9.568;2023-04-01T07:48:30;2.97;;;0.47;;
6282;SDS011;3174;53.486;9.568;2023-04-01T07:51:02;0.50;;;0.50;;
6282;SDS011;3174;53.486;9.568;2023-04-01T07:53:33;1.83;;;0.53;;
6282;SDS011;3174;53.486;9.568;2023-04-01T07:56:06;0.50;;;0.50;;
6282;SDS011;3174;53.486;9.568;2023-04-01T07:58:40;2.37;;;0.63;;
6282;SDS011;3174;53.486;9.568;2023-04-01T08:01:23;0.43;;;0.43;;
6282;SDS011;3174;53.486;9.568;2023-04-01T08:04:23;0.50;;;0.40;;
6282;SDS011;3174;53.486;9.568;2023-04-01T08:06:59;0.40;;;0.40;;
6282;SDS011;3174;53.486;9.568;2023-04-01T08:09:37;0.53;;;0.53;;
6282;SDS011;3174;53.486;9.568;2023-04-01T08:12:15;1.90;;;0.33;;
6282;SDS011;3174;53.486;9.568;2023-04-01T08:14:53;0.50;;;0.40;;
6282;SDS011;3174;53.486;9.568;2023-04-01T08:17:30;0.77;;;0.67;;
6282;SDS011;3174;53.486;9.568;2023-04-01T08:20:09;0.50;;;0.50;;
6282;SDS011;3174;53.486;9.568;2023-04-01T08:22:42;0.50;;;0.50;;
6282;SDS011;3174;53.486;9.568;2023-04-01T08:25:16;0.50;;;0.50;;
6282;SDS011;3174;53.486;9.568;2023-04-01T08:27:47;0.83;;;0.50;;
6282;SDS011;3174;53.486;9.568;2023-04-01T08:30:17;0.50;;;0.50;;
6282;SDS011;3174;53.486;9.568;2023-04-01T08:32:47;0.40;;;0.40;;
6282;SDS011;3174;53.486;9.568;2023-04-01T08:35:20;1.47;;;0.70;;
6282;SDS011;3174;53.486;9.568;2023-04-01T08:37:58;0.63;;;0.50;;
6282;SDS011;3174;53.486;9.568;2023-04-01T08:40:35;0.43;;;0.43;;
6282;SDS011;3174;53.486;9.568;2023-04-01T08:43:09;0.60;;;0.57;;
6282;SDS011;3174;53.486;9.568;2023-04-01T08:45:53;0.47;;;0.47;;
6282;SDS011;3174;53.486;9.568;2023-04-01T08:48:40;0.60;;;0.60;;
6282;SDS011;3174;53.486;9.568;2023-04-01T08:51:42;0.70;;;0.70;;
6282;SDS011;3174;53.486;9.568;2023-04-01T08:54:37;0.87;;;0.83;;
6282;SDS011;3174;53.486;9.568;2023-04-01T08:57:18;1.60;;;1.40;;
6282;SDS011;3174;53.486;9.568;2023-04-01T08:59:55;1.10;;;1.00;;
6282;SDS011;3174;53.486;9.568;2023-04-01T09:08:24;1.20;;;1.03;;
6282;SDS011;3174;53.486;9.568;2023-04-01T09:11:06;1.07;;;0.97;;
6282;SDS011;3174;53.486;9.568;2023-04-01T09:13:46;1.40;;;1.10;;
6282;SDS011;3174;53.486;9.568;2023-04-01T09:16:49;2.10;;;1.03;;
6282;SDS011;3174;53.486;9.568;2023-04-01T09:19:34;1.37;;;0.97;;
6282;SDS011;3174;53.486;9.568;2023-04-01T09:25:14;1.00;;;0.90;;
6282;SDS011;3174;53.486;9.568;2023-04-01T09:28:08;0.90;;;0.90;;
6282;SDS011;3174;53.486;9.568;2023-04-01T09:34:12;1.50;;;0.97;;
6282;SDS011;3174;53.486;9.568;2023-04-01T09:39:55;3.40;;;0.97;;
6282;SDS011;3174;53.486;9.568;2023-04-01T09:42:43;1.00;;;0.90;;
6282;SDS011;3174;53.486;9.568;2023-04-01T09:45:18;1.00;;;0.90;;
6282;SDS011;3174;53.486;9.568;2023-04-01T09:47:59;0.80;;;0.80;;
6282;SDS011;3174;53.486;9.568;2023-04-01T09:50:38;0.90;;;0.90;;
6282;SDS011;3174;53.486;9.568;2023-04-01T09:53:19;0.87;;;0.80;;
6282;SDS011;3174;53.486;9.568;2023-04-01T09:59:08;0.87;;;0.83;;
6282;SDS011;3174;53.486;9.568;2023-04-01T10:01:58;0.70;;;0.70;;
6282;SDS011;3174;53.486;9.568;2023-04-01T10:08:01;1.30;;;0.87;;
6282;SDS011;3174;53.486;9.568;2023-04-01T10:10:47;1.43;;;0.90;;
6282;SDS011;3174;53.486;9.568;2023-04-01T10:13:48;0.97;;;0.67;;
6282;SDS011;3174;53.486;9.568;2023-04-01T10:16:41;0.70;;;0.70;;
6282;SDS011;3174;53.486;9.568;2023-04-01T10:29:03;0.77;;;0.77;;
6282;SDS011;3174;53.486;9.568;2023-04-01T10:35:34;1.17;;;1.00;;
6282;SDS011;3174;53.486;9.568;2023-04-01T10:41:40;1.83;;;1.00;;
6282;SDS011;3174;53.486;9.568;2023-04-01T10:47:39;1.47;;;1.00;;
6282;SDS011;3174;53.486;9.568;2023-04-01T10:50:57;1.27;;;0.93;;
6282;SDS011;3174;53.486;9.568;2023-04-01T10:53:37;1.47;;;1.03;;
6282;SDS011;3174;53.486;9.568;2023-04-01T11:08:41;1.17;;;0.90;;
6282;SDS011;3174;53.486;9.568;2023-04-01T11:11:38;1.30;;;1.20;;
6282;SDS011;3174;53.486;9.568;2023-04-01T11:23:43;1.10;;;1.00;;
6282;SDS011;3174;53.486;9.568;2023-04-01T11:26:36;1.00;;;0.90;;
6282;SDS011;3174;53.486;9.568;2023-04-01T11:29:19;1.00;;;0.90;;
6282;SDS011;3174;53.486;9.568;2023-04-01T11:31:58;1.20;;;1.10;;
6282;SDS011;3174;53.486;9.568;2023-04-01T11:37:27;1.07;;;0.87;;
6282;SDS011;3174;53.486;9.568;2023-04-01T11:40:06;1.10;;;1.00;;
6282;SDS011;3174;53.486;9.568;2023-04-01T11:42:43;1.30;;;0.90;;
6282;SDS011;3174;53.486;9.568;2023-04-01T11:45:17;0.80;;;0.80;;
6282;SDS011;3174;53.486;9.568;2023-04-01T11:48:03;1.37;;;0.90;;
6282;SDS011;3174;53.486;9.568;2023-04-01T11:50:58;0.83;;;0.83;;
6282;SDS011;3174;53.486;9.568;2023-04-01T11:53:41;0.80;;;0.70;;
6282;SDS011;3174;53.486;9.568;2023-04-01T11:56:19;0.70;;;0.70;;
6282;SDS011;3174;53.486;9.568;2023-04-01T11:59:02;0.63;;;0.63;;
6282;SDS011;3174;53.486;9.568;2023-04-01T12:01:42;1.20;;;0.80;;
6282;SDS011;3174;53.486;9.568;2023-04-01T12:07:27;2.07;;;1.20;;
6282;SDS011;3174;53.486;9.568;2023-04-01T12:10:15;1.57;;;1.10;;
6282;SDS011;3174;53.486;9.568;2023-04-01T12:12:52;2.77;;;1.93;;
6282;SDS011;3174;53.486;9.568;2023-04-01T12:15:30;3.30;;;1.93;;
6282;SDS011;3174;53.486;9.568;2023-04-01T12:18:06;3.40;;;2.30;;
6282;SDS011;3174;53.486;9.568;2023-04-01T12:20:44;4.50;;;2.20;;
6282;SDS011;3174;53.486;9.568;2023-04-01T12:23:23;3.20;;;2.00;;
6282;SDS011;3174;53.486;9.568;2023-04-01T12:26:10;2.97;;;1.80;;
6282;SDS011;3174;53.486;9.568;2023-04-01T12:28:50;3.13;;;1.90;;
6282;SDS011;3174;53.486;9.568;2023-04-01T12:32:01;2.37;;;1.60;;
6282;SDS011;3174;53.486;9.568;2023-04-01T12:34:35;3.80;;;1.77;;
6282;SDS011;3174;53.486;9.568;2023-04-01T12:37:13;2.10;;;1.90;;
6282;SDS011;3174;53.486;9.568;2023-04-01T12:39:51;2.10;;;1.63;;
6282;SDS011;3174;53.486;9.568;2023-04-01T12:42:33;3.20;;;1.70;;
6282;SDS011;3174;53.486;9.568;2023-04-01T12:45:15;2.40;;;1.60;;
6282;SDS011;3174;53.486;9.568;2023-04-01T12:48:10;2.93;;;1.80;;
6282;SDS011;3174;53.486;9.568;2023-04-01T12:50:57;2.57;;;1.60;;
6282;SDS011;3174;53.486;9.568;2023-04-01T12:53:58;3.00;;;1.60;;
6282;SDS011;3174;53.486;9.568;2023-04-01T12:56:44;2.20;;;1.50;;
6282;SDS011;3174;53.486;9.568;2023-04-01T12:59:25;2.23;;;1.60;;
6282;SDS011;3174;53.486;9.568;2023-04-01T13:02:00;3.67;;;1.60;;
6282;SDS011;3174;53.486;9.568;2023-04-01T13:04:47;3.07;;;1.57;;
6282;SDS011;3174;53.486;9.568;2023-04-01T13:11:13;2.00;;;1.43;;
6282;SDS011;3174;53.486;9.568;2023-04-01T13:14:29;1.93;;;1.67;;
6282;SDS011;3174;53.486;9.568;2023-04-01T13:17:31;2.90;;;1.70;;
6282;SDS011;3174;53.486;9.568;2023-04-01T13:20:20;3.17;;;1.77;;
6282;SDS011;3174;53.486;9.568;2023-04-01T13:23:14;2.80;;;1.67;;
6282;SDS011;3174;53.486;9.568;2023-04-01T13:26:15;2.57;;;1.57;;
6282;SDS011;3174;53.486;9.568;2023-04-01T13:32:34;2.07;;;1.63;;
6282;SDS011;3174;53.486;9.568;2023-04-01T13:35:39;2.80;;;1.80;;
6282;SDS011;3174;53.486;9.568;2023-04-01T13:38:51;4.73;;;2.10;;
6282;SDS011;3174;53.486;9.568;2023-04-01T13:42:14;2.83;;;1.77;;
6282;SDS011;3174;53.486;9.568;2023-04-01T13:45:15;1.70;;;1.17;;
6282;SDS011;3174;53.486;9.568;2023-04-01T13:54:07;2.97;;;1.70;;
6282;SDS011;3174;53.486;9.568;2023-04-01T13:57:02;2.73;;;1.57;;
6282;SDS011;3174;53.486;9.568;2023-04-01T13:59:46;2.67;;;1.60;;
6282;SDS011;3174;53.486;9.568;2023-04-01T14:02:40;3.07;;;1.77;;
6282;SDS011;3174;53.486;9.568;2023-04-01T14:05:19;2.13;;;1.37;;
6282;SDS011;3174;53.486;9.568;2023-04-01T14:08:13;2.80;;;1.50;;
6282;SDS011;3174;53.486;9.568;2023-04-01T14:10:49;3.43;;;1.70;;
6282;SDS011;3174;53.486;9.568;2023-04-01T14:13:27;3.97;;;1.93;;
6282;SDS011;3174;53.486;9.568;2023-04-01T14:19:02;2.63;;;1.93;;
6282;SDS011;3174;53.486;9.568;2023-04-01T14:21:35;3.73;;;1.83;;
6282;SDS011;3174;53.486;9.568;2023-04-01T14:24:12;2.40;;;1.90;;
6282;SDS011;3174;53.486;9.568;2023-04-01T14:29:39;3.47;;;1.80;;
6282;SDS011;3174;53.486;9.568;2023-04-01T14:32:15;3.50;;;2.10;;
6282;SDS011;3174;53.486;9.568;2023-04-01T14:34:53;4.67;;;2.70;;
6282;SDS011;3174;53.486;9.568;2023-04-01T14:37:30;4.83;;;2.13;;
6282;SDS011;3174;53.486;9.568;2023-04-01T14:40:20;3.80;;;2.20;;
6282;SDS011;3174;53.486;9.568;2023-04-01T14:43:01;3.63;;;1.97;;
6282;SDS011;3174;53.486;9.568;2023-04-01T14:45:41;3.53;;;2.53;;
6282;SDS011;3174;53.486;9.568;2023-04-01T14:48:15;4.57;;;2.27;;
6282;SDS011;3174;53.486;9.568;2023-04-01T14:50:54;3.60;;;2.13;;
6282;SDS011;3174;53.486;9.568;2023-04-01T14:53:26;4.03;;;1.83;;
6282;SDS011;3174;53.486;9.568;2023-04-01T14:55:57;5.73;;;2.00;;
6282;SDS011;3174;53.486;9.568;2023-04-01T14:58:40;2.33;;;1.70;;
6282;SDS011;3174;53.486;9.568;2023-04-01T15:01:30;4.03;;;1.77;;
6282;SDS011;3174;53.486;9.568;2023-04-01T15:04:14;4.67;;;2.10;;
6282;SDS011;3174;53.486;9.568;2023-04-01T15:06:57;3.00;;;1.80;;
6282;SDS011;3174;53.486;9.568;2023-04-01T15:09:32;4.53;;;1.77;;
6282;SDS011;3174;53.486;9.568;2023-04-01T15:12:11;3.37;;;1.67;;
6282;SDS011;3174;53.486;9.568;2023-04-01T15:14:57;3.80;;;1.90;;
6282;SDS011;3174;53.486;9.568;2023-04-01T15:17:36;3.47;;;1.83;;
6282;SDS011;3174;53.486;9.568;2023-04-01T15:20:20;3.10;;;1.90;;
6282;SDS011;3174;53.486;9.568;2023-04-01T15:22:59;10.50;;;2.03;;
6282;SDS011;3174;53.486;9.568;2023-04-01T15:25:48;2.53;;;1.70;;
6282;SDS011;3174;53.486;9.568;2023-04-01T15:28:28;1.93;;;1.50;;
6282;SDS011;3174;53.486;9.568;2023-04-01T15:31:01;4.53;;;1.77;;
6282;SDS011;3174;53.486;9.568;2023-04-01T15:33:36;2.77;;;1.70;;
6282;SDS011;3174;53.486;9.568;2023-04-01T15:36:09;2.00;;;1.40;;
6282;SDS011;3174;53.486;9.568;2023-04-01T15:38:44;2.53;;;1.50;;
6282;SDS011;3174;53.486;9.568;2023-04-01T15:41:16;3.07;;;1.80;;
6282;SDS011;3174;53.486;9.568;2023-04-01T15:43:54;3.23;;;1.70;;
6282;SDS011;3174;53.486;9.568;2023-04-01T15:46:30;3.30;;;1.90;;
6282;SDS011;3174;53.486;9.568;2023-04-01T15:49:15;2.50;;;2.03;;
6282;SDS011;3174;53.486;9.568;2023-04-01T15:51:54;2.70;;;1.87;;
6282;SDS011;3174;53.486;9.568;2023-04-01T15:57:43;3.23;;;2.07;;
6282;SDS011;3174;53.486;9.568;2023-04-01T16:00:27;5.33;;;2.30;;
6282;SDS011;3174;53.486;9.568;2023-04-01T16:03:08;3.20;;;1.93;;
6282;SDS011;3174;53.486;9.568;2023-04-01T16:05:44;2.90;;;2.00;;
6282;SDS011;3174;53.486;9.568;2023-04-01T16:08:29;3.03;;;1.90;;
6282;SDS011;3174;53.486;9.568;2023-04-01T16:11:18;4.37;;;2.30;;
6282;SDS011;3174;53.486;9.568;2023-04-01T16:13:53;3.23;;;1.77;;
6282;SDS011;3174;53.486;9.568;2023-04-01T16:16:31;5.10;;;2.63;;
6282;SDS011;3174;53.486;9.568;2023-04-01T16:19:25;4.50;;;2.40;;
6282;SDS011;3174;53.486;9.568;2023-04-01T16:22:02;3.47;;;2.10;;
6282;SDS011;3174;53.486;9.568;2023-04-01T16:24:34;4.00;;;2.60;;
6282;SDS011;3174;53.486;9.568;2023-04-01T16:27:04;4.80;;;1.80;;
6282;SDS011;3174;53.486;9.568;2023-04-01T16:29:37;3.07;;;1.90;;
6282;SDS011;3174;53.486;9.568;2023-04-01T16:32:14;4.93;;;2.13;;
6282;SDS011;3174;53.486;9.568;2023-04-01T16:34:47;5.13;;;2.03;;
6282;SDS011;3174;53.486;9.568;2023-04-01T16:37:27;3.93;;;1.90;;
6282;SDS011;3174;53.486;9.568;2023-04-01T16:40:01;5.33;;;2.23;;
6282;SDS011;3174;53.486;9.568;2023-04-01T16:42:39;4.83;;;2.10;;
6282;SDS011;3174;53.486;9.568;2023-04-01T16:45:16;2.93;;;1.80;;
6282;SDS011;3174;53.486;9.568;2023-04-01T16:47:49;1.80;;;1.60;;
6282;SDS011;3174;53.486;9.568;2023-04-01T16:50:19;3.97;;;2.60;;
6282;SDS011;3174;53.486;9.568;2023-04-01T16:52:55;6.83;;;2.33;;
6282;SDS011;3174;53.486;9.568;2023-04-01T16:55:34;3.83;;;2.07;;
6282;SDS011;3174;53.486;9.568;2023-04-01T16:58:03;3.53;;;2.50;;
6282;SDS011;3174;53.486;9.568;2023-04-01T17:00:36;3.30;;;2.20;;
6282;SDS011;3174;53.486;9.568;2023-04-01T17:03:11;3.37;;;1.90;;
6282;SDS011;3174;53.486;9.568;2023-04-01T17:05:48;3.43;;;2.10;;
6282;SDS011;3174;53.486;9.568;2023-04-01T17:08:22;5.57;;;2.10;;
6282;SDS011;3174;53.486;9.568;2023-04-01T17:10:57;3.33;;;1.97;;
6282;SDS011;3174;53.486;9.568;2023-04-01T17:13:40;4.87;;;2.37;;
6282;SDS011;3174;53.486;9.568;2023-04-01T17:16:19;5.53;;;2.03;;
6282;SDS011;3174;53.486;9.568;2023-04-01T17:19:01;4.63;;;2.03;;
6282;SDS011;3174;53.486;9.568;2023-04-01T17:21:40;3.43;;;1.77;;
6282;SDS011;3174;53.486;9.568;2023-04-01T17:24:19;3.60;;;2.13;;
6282;SDS011;3174;53.486;9.568;2023-04-01T17:26:56;4.97;;;2.20;;
6282;SDS011;3174;53.486;9.568;2023-04-01T17:29:43;2.90;;;2.20;;
6282;SDS011;3174;53.486;9.568;2023-04-01T17:32:25;4.07;;;1.97;;
6282;SDS011;3174;53.486;9.568;2023-04-01T17:35:03;3.93;;;2.33;;
6282;SDS011;3174;53.486;9.568;2023-04-01T17:37:39;7.27;;;2.20;;
6282;SDS011;3174;53.486;9.568;2023-04-01T17:40:20;4.57;;;2.23;;
6282;SDS011;3174;53.486;9.568;2023-04-01T17:42:57;3.57;;;2.03;;
6282;SDS011;3174;53.486;9.568;2023-04-01T17:45:30;3.53;;;2.20;;
6282;SDS011;3174;53.486;9.568;2023-04-01T17:48:03;3.73;;;2.30;;